Terminal Aerodrome Forecast
Issued by NWS

Home | Current Version | Previous Version | Text Only | Print | Product List | Glossary On
Versions: 1 2 3 4 5 6 7 8 9 10 11 12 13 14
000
FTUS43 KAPX 180820 AAA
TAFAPN
TAF AMD
KAPN 180820Z 1808/1906 27007KT P6SM OVC025
      TEMPO 1808/1810 -SN
     FM181200 24004KT P6SM BKN025
     FM181700 21006KT P6SM BKN110
     FM182300 16011KT P6SM OVC110 WS020/18045KT
     FM190300 18012KT P6SM BKN120 WS020/21045KT=

USA.gov is the U.S. government's official web portal to all federal, state and local government web resources and services.